sensor_id;sensor_type;location;lat;lon;timestamp;pressure;altitude;pressure_sealevel;temperature
11849;BMP180;5983;49.966;8.052;2023-03-01T00:01:40;101655.00;;;2.10
11849;BMP180;5983;49.966;8.052;2023-03-01T00:04:07;101651.00;;;2.10
11849;BMP180;5983;49.966;8.052;2023-03-01T00:06:36;101647.00;;;2.10
11849;BMP180;5983;49.966;8.052;2023-03-01T00:09:04;101659.00;;;2.10
11849;BMP180;5983;49.966;8.052;2023-03-01T00:11:32;101654.00;;;2.10
11849;BMP180;5983;49.966;8.052;2023-03-01T00:14:01;101659.00;;;2.10
11849;BMP180;5983;49.966;8.052;2023-03-01T00:16:33;101663.00;;;2.10
11849;BMP180;5983;49.966;8.052;2023-03-01T00:19:00;101663.00;;;2.10
11849;BMP180;5983;49.966;8.052;2023-03-01T00:21:28;101668.00;;;2.10
11849;BMP180;5983;49.966;8.052;2023-03-01T00:23:57;101670.00;;;2.10
11849;BMP180;5983;49.966;8.052;2023-03-01T00:26:25;101667.00;;;2.10
11849;BMP180;5983;49.966;8.052;2023-03-01T00:28:54;101666.00;;;2.00
11849;BMP180;5983;49.966;8.052;2023-03-01T00:31:25;101656.00;;;2.00
11849;BMP180;5983;49.966;8.052;2023-03-01T00:33:53;101652.00;;;2.00
11849;BMP180;5983;49.966;8.052;2023-03-01T00:36:24;101636.00;;;1.90
11849;BMP180;5983;49.966;8.052;2023-03-01T00:38:51;101642.00;;;1.90
11849;BMP180;5983;49.966;8.052;2023-03-01T00:41:21;101643.00;;;1.80
11849;BMP180;5983;49.966;8.052;2023-03-01T00:43:50;101646.00;;;1.80
11849;BMP180;5983;49.966;8.052;2023-03-01T00:46:19;101642.00;;;1.80
11849;BMP180;5983;49.966;8.052;2023-03-01T00:48:47;101635.00;;;1.80
11849;BMP180;5983;49.966;8.052;2023-03-01T00:51:21;101639.00;;;1.80
11849;BMP180;5983;49.966;8.052;2023-03-01T00:53:51;101641.00;;;1.80
11849;BMP180;5983;49.966;8.052;2023-03-01T00:56:20;101630.00;;;1.70
11849;BMP180;5983;49.966;8.052;2023-03-01T00:58:47;101633.00;;;1.70
11849;BMP180;5983;49.966;8.052;2023-03-01T01:01:17;101631.00;;;1.80
11849;BMP180;5983;49.966;8.052;2023-03-01T01:03:46;101631.00;;;1.70
11849;BMP180;5983;49.966;8.052;2023-03-01T01:06:16;101629.00;;;1.70
11849;BMP180;5983;49.966;8.052;2023-03-01T01:08:43;101628.00;;;1.70
11849;BMP180;5983;49.966;8.052;2023-03-01T01:11:11;101616.00;;;1.60
11849;BMP180;5983;49.966;8.052;2023-03-01T01:13:41;101614.00;;;1.60
11849;BMP180;5983;49.966;8.052;2023-03-01T01:16:08;101607.00;;;1.60
11849;BMP180;5983;49.966;8.052;2023-03-01T01:18:36;101608.00;;;1.60
11849;BMP180;5983;49.966;8.052;2023-03-01T01:21:06;101603.00;;;1.70
11849;BMP180;5983;49.966;8.052;2023-03-01T01:23:33;101607.00;;;1.60
11849;BMP180;5983;49.966;8.052;2023-03-01T01:26:05;101599.00;;;1.60
11849;BMP180;5983;49.966;8.052;2023-03-01T01:28:33;101589.00;;;1.60
11849;BMP180;5983;49.966;8.052;2023-03-01T01:31:02;101586.00;;;1.60
11849;BMP180;5983;49.966;8.052;2023-03-01T01:33:29;101586.00;;;1.60
11849;BMP180;5983;49.966;8.052;2023-03-01T01:35:56;101579.00;;;1.60
11849;BMP180;5983;49.966;8.052;2023-03-01T01:38:24;101582.00;;;1.60
11849;BMP180;5983;49.966;8.052;2023-03-01T01:40:51;101587.00;;;1.50
11849;BMP180;5983;49.966;8.052;2023-03-01T01:43:23;101586.00;;;1.50
11849;BMP180;5983;49.966;8.052;2023-03-01T01:45:51;101570.00;;;1.50
11849;BMP180;5983;49.966;8.052;2023-03-01T01:48:28;101572.00;;;1.50
11849;BMP180;5983;49.966;8.052;2023-03-01T01:51:09;101565.00;;;1.50
11849;BMP180;5983;49.966;8.052;2023-03-01T01:53:39;101567.00;;;1.40
11849;BMP180;5983;49.966;8.052;2023-03-01T01:56:10;101565.00;;;1.40
11849;BMP180;5983;49.966;8.052;2023-03-01T01:58:39;101560.00;;;1.40
11849;BMP180;5983;49.966;8.052;2023-03-01T02:01:07;101566.00;;;1.50
11849;BMP180;5983;49.966;8.052;2023-03-01T02:03:39;101566.00;;;1.50
11849;BMP180;5983;49.966;8.052;2023-03-01T02:06:19;101564.00;;;1.40
11849;BMP180;5983;49.966;8.052;2023-03-01T02:08:51;101555.00;;;1.40
11849;BMP180;5983;49.966;8.052;2023-03-01T02:11:20;101554.00;;;1.20
11849;BMP180;5983;49.966;8.052;2023-03-01T02:13:48;101557.00;;;1.10
11849;BMP180;5983;49.966;8.052;2023-03-01T02:16:17;101548.00;;;1.00
11849;BMP180;5983;49.966;8.052;2023-03-01T02:18:46;101556.00;;;0.90
11849;BMP180;5983;49.966;8.052;2023-03-01T02:21:37;101546.00;;;0.70
11849;BMP180;5983;49.966;8.052;2023-03-01T02:24:24;101549.00;;;0.70
11849;BMP180;5983;49.966;8.052;2023-03-01T02:26:56;101551.00;;;0.60
11849;BMP180;5983;49.966;8.052;2023-03-01T02:29:25;101555.00;;;0.70
11849;BMP180;5983;49.966;8.052;2023-03-01T02:31:57;101542.00;;;0.80
11849;BMP180;5983;49.966;8.052;2023-03-01T02:34:25;101554.00;;;0.90
11849;BMP180;5983;49.966;8.052;2023-03-01T02:36:58;101538.00;;;0.90
11849;BMP180;5983;49.966;8.052;2023-03-01T02:39:32;101541.00;;;0.90
11849;BMP180;5983;49.966;8.052;2023-03-01T02:42:02;101539.00;;;0.90
11849;BMP180;5983;49.966;8.052;2023-03-01T02:44:32;101537.00;;;0.80
11849;BMP180;5983;49.966;8.052;2023-03-01T02:47:02;101533.00;;;0.70
11849;BMP180;5983;49.966;8.052;2023-03-01T02:49:32;101535.00;;;0.50
11849;BMP180;5983;49.966;8.052;2023-03-01T02:52:28;101532.00;;;0.50
11849;BMP180;5983;49.966;8.052;2023-03-01T02:55:01;101522.00;;;0.40
11849;BMP180;5983;49.966;8.052;2023-03-01T02:57:32;101512.00;;;0.40
11849;BMP180;5983;49.966;8.052;2023-03-01T03:00:05;101507.00;;;0.30
11849;BMP180;5983;49.966;8.052;2023-03-01T03:02:35;101514.00;;;0.30
11849;BMP180;5983;49.966;8.052;2023-03-01T03:05:10;101511.00;;;0.30
11849;BMP180;5983;49.966;8.052;2023-03-01T03:07:40;101501.00;;;0.20
11849;BMP180;5983;49.966;8.052;2023-03-01T03:10:11;101500.00;;;0.20
11849;BMP180;5983;49.966;8.052;2023-03-01T03:12:39;101501.00;;;0.20
11849;BMP180;5983;49.966;8.052;2023-03-01T03:15:10;101497.00;;;0.30
11849;BMP180;5983;49.966;8.052;2023-03-01T03:17:40;101487.00;;;0.30
11849;BMP180;5983;49.966;8.052;2023-03-01T03:20:11;101485.00;;;0.30
11849;BMP180;5983;49.966;8.052;2023-03-01T03:22:39;101481.00;;;0.30
11849;BMP180;5983;49.966;8.052;2023-03-01T03:25:07;101481.00;;;0.20
11849;BMP180;5983;49.966;8.052;2023-03-01T03:27:36;101487.00;;;0.20
11849;BMP180;5983;49.966;8.052;2023-03-01T03:30:07;101483.00;;;0.10
11849;BMP180;5983;49.966;8.052;2023-03-01T03:32:35;101477.00;;;0.20
11849;BMP180;5983;49.966;8.052;2023-03-01T03:35:02;101477.00;;;0.20
11849;BMP180;5983;49.966;8.052;2023-03-01T03:37:35;101479.00;;;0.20
11849;BMP180;5983;49.966;8.052;2023-03-01T03:40:20;101471.00;;;0.20
11849;BMP180;5983;49.966;8.052;2023-03-01T03:42:46;101473.00;;;0.20
11849;BMP180;5983;49.966;8.052;2023-03-01T03:45:15;101477.00;;;0.30
11849;BMP180;5983;49.966;8.052;2023-03-01T03:47:43;101466.00;;;0.30
11849;BMP180;5983;49.966;8.052;2023-03-01T03:50:12;101457.00;;;0.20
11849;BMP180;5983;49.966;8.052;2023-03-01T03:52:40;101455.00;;;0.20
11849;BMP180;5983;49.966;8.052;2023-03-01T03:55:10;101456.00;;;0.10
11849;BMP180;5983;49.966;8.052;2023-03-01T03:57:39;101456.00;;;0.20
11849;BMP180;5983;49.966;8.052;2023-03-01T04:00:10;101453.00;;;0.30
11849;BMP180;5983;49.966;8.052;2023-03-01T04:02:40;101449.00;;;0.30
11849;BMP180;5983;49.966;8.052;2023-03-01T04:05:09;101447.00;;;0.30
11849;BMP180;5983;49.966;8.052;2023-03-01T04:07:38;101450.00;;;0.30
11849;BMP180;5983;49.966;8.052;2023-03-01T04:10:10;101454.00;;;0.20
11849;BMP180;5983;49.966;8.052;2023-03-01T04:12:37;101456.00;;;0.20
11849;BMP180;5983;49.966;8.052;2023-03-01T04:15:06;101452.00;;;0.20
11849;BMP180;5983;49.966;8.052;2023-03-01T04:17:41;101446.00;;;0.10
11849;BMP180;5983;49.966;8.052;2023-03-01T04:20:11;101451.00;;;0.10
11849;BMP180;5983;49.966;8.052;2023-03-01T04:22:39;101447.00;;;0.20
11849;BMP180;5983;49.966;8.052;2023-03-01T04:25:07;101455.00;;;0.20
11849;BMP180;5983;49.966;8.052;2023-03-01T04:27:40;101455.00;;;0.20
11849;BMP180;5983;49.966;8.052;2023-03-01T04:30:09;101456.00;;;0.10
11849;BMP180;5983;49.966;8.052;2023-03-01T04:32:36;101445.00;;;0.10
11849;BMP180;5983;49.966;8.052;2023-03-01T04:35:05;101452.00;;;0.10
11849;BMP180;5983;49.966;8.052;2023-03-01T04:37:32;101443.00;;;0.10
11849;BMP180;5983;49.966;8.052;2023-03-01T04:40:00;101458.00;;;0.10
11849;BMP180;5983;49.966;8.052;2023-03-01T04:42:32;101460.00;;;0.10
11849;BMP180;5983;49.966;8.052;2023-03-01T04:44:59;101445.00;;;0.10
11849;BMP180;5983;49.966;8.052;2023-03-01T04:47:26;101452.00;;;0.10
11849;BMP180;5983;49.966;8.052;2023-03-01T04:49:52;101450.00;;;0.10
11849;BMP180;5983;49.966;8.052;2023-03-01T04:52:21;101451.00;;;0.00
11849;BMP180;5983;49.966;8.052;2023-03-01T04:54:48;101443.00;;;0.00
11849;BMP180;5983;49.966;8.052;2023-03-01T04:57:15;101455.00;;;0.00
11849;BMP180;5983;49.966;8.052;2023-03-01T04:59:41;101439.00;;;0.00
11849;BMP180;5983;49.966;8.052;2023-03-01T05:02:09;101443.00;;;0.00
11849;BMP180;5983;49.966;8.052;2023-03-01T05:04:36;101439.00;;;0.00
11849;BMP180;5983;49.966;8.052;2023-03-01T05:07:03;101436.00;;;0.10
11849;BMP180;5983;49.966;8.052;2023-03-01T05:09:31;101433.00;;;0.00
11849;BMP180;5983;49.966;8.052;2023-03-01T05:11:58;101439.00;;;0.00
11849;BMP180;5983;49.966;8.052;2023-03-01T05:14:25;101438.00;;;0.00
11849;BMP180;5983;49.966;8.052;2023-03-01T05:16:52;101441.00;;;0.00
11849;BMP180;5983;49.966;8.052;2023-03-01T05:19:19;101431.00;;;-0.10
11849;BMP180;5983;49.966;8.052;2023-03-01T05:21:48;101440.00;;;-0.10
11849;BMP180;5983;49.966;8.052;2023-03-01T05:24:33;101429.00;;;-0.10
11849;BMP180;5983;49.966;8.052;2023-03-01T05:27:02;101434.00;;;-0.10
11849;BMP180;5983;49.966;8.052;2023-03-01T05:29:31;101444.00;;;-0.10
11849;BMP180;5983;49.966;8.052;2023-03-01T05:32:02;101438.00;;;-0.10
11849;BMP180;5983;49.966;8.052;2023-03-01T05:34:32;101445.00;;;-0.10
11849;BMP180;5983;49.966;8.052;2023-03-01T05:37:01;101447.00;;;-0.10
11849;BMP180;5983;49.966;8.052;2023-03-01T05:39:31;101442.00;;;-0.10
11849;BMP180;5983;49.966;8.052;2023-03-01T05:42:00;101440.00;;;-0.10
11849;BMP180;5983;49.966;8.052;2023-03-01T05:44:29;101431.00;;;-0.10
11849;BMP180;5983;49.966;8.052;2023-03-01T05:46:56;101429.00;;;-0.10
11849;BMP180;5983;49.966;8.052;2023-03-01T05:49:23;101421.00;;;-0.10
11849;BMP180;5983;49.966;8.052;2023-03-01T05:51:52;101426.00;;;-0.10
11849;BMP180;5983;49.966;8.052;2023-03-01T05:54:20;101436.00;;;-0.20
11849;BMP180;5983;49.966;8.052;2023-03-01T05:56:49;101435.00;;;-0.10
11849;BMP180;5983;49.966;8.052;2023-03-01T05:59:16;101436.00;;;-0.10
11849;BMP180;5983;49.966;8.052;2023-03-01T06:01:43;101429.00;;;-0.10
11849;BMP180;5983;49.966;8.052;2023-03-01T06:04:10;101433.00;;;-0.10
11849;BMP180;5983;49.966;8.052;2023-03-01T06:06:37;101431.00;;;-0.10
11849;BMP180;5983;49.966;8.052;2023-03-01T06:09:05;101438.00;;;-0.20
11849;BMP180;5983;49.966;8.052;2023-03-01T06:11:35;101432.00;;;-0.20
11849;BMP180;5983;49.966;8.052;2023-03-01T06:14:06;101432.00;;;-0.20
11849;BMP180;5983;49.966;8.052;2023-03-01T06:16:33;101429.00;;;-0.30
11849;BMP180;5983;49.966;8.052;2023-03-01T06:19:00;101437.00;;;-0.30
11849;BMP180;5983;49.966;8.052;2023-03-01T06:21:27;101435.00;;;-0.40
11849;BMP180;5983;49.966;8.052;2023-03-01T06:23:54;101432.00;;;-0.40
11849;BMP180;5983;49.966;8.052;2023-03-01T06:26:21;101438.00;;;-0.30
11849;BMP180;5983;49.966;8.052;2023-03-01T06:28:48;101428.00;;;-0.20
11849;BMP180;5983;49.966;8.052;2023-03-01T06:31:16;101436.00;;;-0.10
11849;BMP180;5983;49.966;8.052;2023-03-01T06:33:43;101429.00;;;0.00
11849;BMP180;5983;49.966;8.052;2023-03-01T06:36:11;101424.00;;;0.10
11849;BMP180;5983;49.966;8.052;2023-03-01T06:38:41;101430.00;;;0.10
11849;BMP180;5983;49.966;8.052;2023-03-01T06:41:10;101435.00;;;0.10
11849;BMP180;5983;49.966;8.052;2023-03-01T06:43:37;101425.00;;;0.20
11849;BMP180;5983;49.966;8.052;2023-03-01T06:46:05;101423.00;;;0.20
11849;BMP180;5983;49.966;8.052;2023-03-01T06:48:34;101424.00;;;0.20
11849;BMP180;5983;49.966;8.052;2023-03-01T06:51:02;101432.00;;;0.30
11849;BMP180;5983;49.966;8.052;2023-03-01T06:53:29;101425.00;;;0.40
11849;BMP180;5983;49.966;8.052;2023-03-01T06:55:56;101424.00;;;0.40
11849;BMP180;5983;49.966;8.052;2023-03-01T06:58:29;101421.00;;;0.50
11849;BMP180;5983;49.966;8.052;2023-03-01T07:00:59;101416.00;;;0.60
11849;BMP180;5983;49.966;8.052;2023-03-01T07:03:26;101415.00;;;0.70
11849;BMP180;5983;49.966;8.052;2023-03-01T07:05:58;101423.00;;;0.90
11849;BMP180;5983;49.966;8.052;2023-03-01T07:08:24;101428.00;;;1.20
11849;BMP180;5983;49.966;8.052;2023-03-01T07:10:55;101428.00;;;1.40
11849;BMP180;5983;49.966;8.052;2023-03-01T07:13:25;101436.00;;;1.70
11849;BMP180;5983;49.966;8.052;2023-03-01T07:15:52;101431.00;;;2.10
11849;BMP180;5983;49.966;8.052;2023-03-01T07:18:19;101436.00;;;2.60
11849;BMP180;5983;49.966;8.052;2023-03-01T07:20:46;101429.00;;;3.20
11849;BMP180;5983;49.966;8.052;2023-03-01T07:23:14;101429.00;;;3.80
11849;BMP180;5983;49.966;8.052;2023-03-01T07:25:41;101440.00;;;4.40
11849;BMP180;5983;49.966;8.052;2023-03-01T07:28:08;101442.00;;;5.00
11849;BMP180;5983;49.966;8.052;2023-03-01T07:30:35;101441.00;;;5.70
11849;BMP180;5983;49.966;8.052;2023-03-01T07:33:03;101438.00;;;6.40
11849;BMP180;5983;49.966;8.052;2023-03-01T07:35:30;101442.00;;;7.20
11849;BMP180;5983;49.966;8.052;2023-03-01T07:37:59;101446.00;;;8.00
11849;BMP180;5983;49.966;8.052;2023-03-01T07:40:27;101445.00;;;9.00
11849;BMP180;5983;49.966;8.052;2023-03-01T07:42:56;101437.00;;;9.60
11849;BMP180;5983;49.966;8.052;2023-03-01T07:45:23;101444.00;;;10.30
11849;BMP180;5983;49.966;8.052;2023-03-01T07:47:50;101442.00;;;11.00
11849;BMP180;5983;49.966;8.052;2023-03-01T07:50:18;101447.00;;;11.90
11849;BMP180;5983;49.966;8.052;2023-03-01T07:52:45;101449.00;;;12.50
11849;BMP180;5983;49.966;8.052;2023-03-01T07:55:13;101450.00;;;13.30
11849;BMP180;5983;49.966;8.052;2023-03-01T07:57:42;101442.00;;;13.20
11849;BMP180;5983;49.966;8.052;2023-03-01T08:00:11;101449.00;;;13.80
11849;BMP180;5983;49.966;8.052;2023-03-01T08:02:38;101448.00;;;14.50
11849;BMP180;5983;49.966;8.052;2023-03-01T08:05:08;101447.00;;;15.10
11849;BMP180;5983;49.966;8.052;2023-03-01T08:07:35;101455.00;;;15.30
11849;BMP180;5983;49.966;8.052;2023-03-01T08:10:03;101450.00;;;15.60
11849;BMP180;5983;49.966;8.052;2023-03-01T08:12:30;101446.00;;;15.60
11849;BMP180;5983;49.966;8.052;2023-03-01T08:14:58;101459.00;;;15.80
11849;BMP180;5983;49.966;8.052;2023-03-01T08:17:25;101468.00;;;16.20
11849;BMP180;5983;49.966;8.052;2023-03-01T08:19:52;101461.00;;;16.80
11849;BMP180;5983;49.966;8.052;2023-03-01T08:22:19;101459.00;;;16.70
11849;BMP180;5983;49.966;8.052;2023-03-01T08:24:46;101458.00;;;16.50
11849;BMP180;5983;49.966;8.052;2023-03-01T08:27:15;101463.00;;;16.90
11849;BMP180;5983;49.966;8.052;2023-03-01T08:29:42;101456.00;;;17.00
11849;BMP180;5983;49.966;8.052;2023-03-01T08:32:10;101455.00;;;17.10
11849;BMP180;5983;49.966;8.052;2023-03-01T08:34:37;101446.00;;;17.20
11849;BMP180;5983;49.966;8.052;2023-03-01T08:37:04;101442.00;;;17.80
11849;BMP180;5983;49.966;8.052;2023-03-01T08:39:31;101452.00;;;18.10
11849;BMP180;5983;49.966;8.052;2023-03-01T08:41:58;101459.00;;;18.10
11849;BMP180;5983;49.966;8.052;2023-03-01T08:44:25;101454.00;;;18.10
11849;BMP180;5983;49.966;8.052;2023-03-01T08:46:52;101456.00;;;18.50
11849;BMP180;5983;49.966;8.052;2023-03-01T08:49:22;101451.00;;;18.70
11849;BMP180;5983;49.966;8.052;2023-03-01T08:51:50;101457.00;;;18.80
11849;BMP180;5983;49.966;8.052;2023-03-01T08:54:20;101449.00;;;18.80
11849;BMP180;5983;49.966;8.052;2023-03-01T08:56:48;101448.00;;;18.80
11849;BMP180;5983;49.966;8.052;2023-03-01T08:59:16;101453.00;;;18.80
11849;BMP180;5983;49.966;8.052;2023-03-01T09:01:43;101438.00;;;18.90
11849;BMP180;5983;49.966;8.052;2023-03-01T09:04:11;101432.00;;;19.60
11849;BMP180;5983;49.966;8.052;2023-03-01T09:06:40;101438.00;;;19.90
11849;BMP180;5983;49.966;8.052;2023-03-01T09:09:13;101435.00;;;19.70
11849;BMP180;5983;49.966;8.052;2023-03-01T09:11:42;101425.00;;;19.70
11849;BMP180;5983;49.966;8.052;2023-03-01T09:14:09;101424.00;;;19.90
11849;BMP180;5983;49.966;8.052;2023-03-01T09:16:36;101430.00;;;19.80
11849;BMP180;5983;49.966;8.052;2023-03-01T09:19:03;101425.00;;;20.50
11849;BMP180;5983;49.966;8.052;2023-03-01T09:21:30;101427.00;;;20.70
11849;BMP180;5983;49.966;8.052;2023-03-01T09:23:59;101419.00;;;21.10
11849;BMP180;5983;49.966;8.052;2023-03-01T09:26:25;101424.00;;;21.30
11849;BMP180;5983;49.966;8.052;2023-03-01T09:28:55;101423.00;;;21.70
11849;BMP180;5983;49.966;8.052;2023-03-01T09:31:24;101431.00;;;21.80
11849;BMP180;5983;49.966;8.052;2023-03-01T09:33:53;101421.00;;;21.90
11849;BMP180;5983;49.966;8.052;2023-03-01T09:36:23;101418.00;;;22.20
11849;BMP180;5983;49.966;8.052;2023-03-01T09:38:51;101422.00;;;22.30
11849;BMP180;5983;49.966;8.052;2023-03-01T09:41:49;101424.00;;;22.50
11849;BMP180;5983;49.966;8.052;2023-03-01T09:44:27;101418.00;;;22.40
11849;BMP180;5983;49.966;8.052;2023-03-01T09:46:57;101426.00;;;23.20
11849;BMP180;5983;49.966;8.052;2023-03-01T09:49:28;101418.00;;;23.60
11849;BMP180;5983;49.966;8.052;2023-03-01T09:52:01;101410.00;;;23.60
11849;BMP180;5983;49.966;8.052;2023-03-01T09:54:30;101411.00;;;23.20
11849;BMP180;5983;49.966;8.052;2023-03-01T09:57:13;101414.00;;;23.00
11849;BMP180;5983;49.966;8.052;2023-03-01T10:00:08;101411.00;;;23.50
11849;BMP180;5983;49.966;8.052;2023-03-01T10:02:42;101405.00;;;23.60
11849;BMP180;5983;49.966;8.052;2023-03-01T10:05:30;101418.00;;;23.90
11849;BMP180;5983;49.966;8.052;2023-03-01T10:08:26;101412.00;;;24.10
11849;BMP180;5983;49.966;8.052;2023-03-01T10:10:55;101415.00;;;24.10
11849;BMP180;5983;49.966;8.052;2023-03-01T10:13:32;101405.00;;;24.10
11849;BMP180;5983;49.966;8.052;2023-03-01T10:16:06;101412.00;;;24.40
11849;BMP180;5983;49.966;8.052;2023-03-01T10:18:38;101397.00;;;24.30
11849;BMP180;5983;49.966;8.052;2023-03-01T10:21:15;101404.00;;;24.60
11849;BMP180;5983;49.966;8.052;2023-03-01T10:23:43;101394.00;;;24.10
11849;BMP180;5983;49.966;8.052;2023-03-01T10:26:34;101395.00;;;24.60
11849;BMP180;5983;49.966;8.052;2023-03-01T10:29:08;101383.00;;;24.40
11849;BMP180;5983;49.966;8.052;2023-03-01T10:31:41;101398.00;;;24.70
11849;BMP180;5983;49.966;8.052;2023-03-01T10:34:12;101387.00;;;24.80
11849;BMP180;5983;49.966;8.052;2023-03-01T10:36:42;101382.00;;;24.80
11849;BMP180;5983;49.966;8.052;2023-03-01T10:39:16;101380.00;;;24.70
11849;BMP180;5983;49.966;8.052;2023-03-01T10:41:58;101376.00;;;24.70
11849;BMP180;5983;49.966;8.052;2023-03-01T10:44:43;101358.00;;;24.70
11849;BMP180;5983;49.966;8.052;2023-03-01T10:47:17;101369.00;;;24.80
11849;BMP180;5983;49.966;8.052;2023-03-01T10:49:59;101358.00;;;24.80
11849;BMP180;5983;49.966;8.052;2023-03-01T10:52:35;101355.00;;;24.80
11849;BMP180;5983;49.966;8.052;2023-03-01T10:55:24;101358.00;;;25.20
11849;BMP180;5983;49.966;8.052;2023-03-01T10:58:08;101363.00;;;25.10
11849;BMP180;5983;49.966;8.052;2023-03-01T11:00:48;101360.00;;;25.00
11849;BMP180;5983;49.966;8.052;2023-03-01T11:03:21;101351.00;;;25.20
11849;BMP180;5983;49.966;8.052;2023-03-01T11:05:56;101333.00;;;25.50
11849;BMP180;5983;49.966;8.052;2023-03-01T11:08:40;101341.00;;;26.00
11849;BMP180;5983;49.966;8.052;2023-03-01T11:11:23;101333.00;;;25.70
11849;BMP180;5983;49.966;8.052;2023-03-01T11:13:54;101345.00;;;25.40
11849;BMP180;5983;49.966;8.052;2023-03-01T11:16:38;101336.00;;;25.30
11849;BMP180;5983;49.966;8.052;2023-03-01T11:19:20;101334.00;;;25.40
11849;BMP180;5983;49.966;8.052;2023-03-01T11:21:58;101338.00;;;25.20
11849;BMP180;5983;49.966;8.052;2023-03-01T11:24:37;101334.00;;;25.30
11849;BMP180;5983;49.966;8.052;2023-03-01T11:27:17;101319.00;;;25.40
11849;BMP180;5983;49.966;8.052;2023-03-01T11:29:48;101327.00;;;26.20
11849;BMP180;5983;49.966;8.052;2023-03-01T11:32:21;101315.00;;;26.10
11849;BMP180;5983;49.966;8.052;2023-03-01T11:34:57;101324.00;;;26.30
11849;BMP180;5983;49.966;8.052;2023-03-01T11:37:40;101324.00;;;26.10
11849;BMP180;5983;49.966;8.052;2023-03-01T11:40:16;101335.00;;;26.20
11849;BMP180;5983;49.966;8.052;2023-03-01T11:42:59;101327.00;;;26.00
11849;BMP180;5983;49.966;8.052;2023-03-01T11:45:43;101328.00;;;26.10
11849;BMP180;5983;49.966;8.052;2023-03-01T11:48:40;101310.00;;;25.90
11849;BMP180;5983;49.966;8.052;2023-03-01T11:51:23;101304.00;;;26.10
11849;BMP180;5983;49.966;8.052;2023-03-01T11:54:14;101297.00;;;25.50
11849;BMP180;5983;49.966;8.052;2023-03-01T11:56:50;101291.00;;;25.50
11849;BMP180;5983;49.966;8.052;2023-03-01T11:59:50;101278.00;;;25.50
11849;BMP180;5983;49.966;8.052;2023-03-01T12:03:11;101273.00;;;25.90
11849;BMP180;5983;49.966;8.052;2023-03-01T12:06:09;101277.00;;;26.20
11849;BMP180;5983;49.966;8.052;2023-03-01T12:08:46;101267.00;;;26.60
11849;BMP180;5983;49.966;8.052;2023-03-01T12:11:29;101278.00;;;26.50
11849;BMP180;5983;49.966;8.052;2023-03-01T12:14:34;101255.00;;;26.50
11849;BMP180;5983;49.966;8.052;2023-03-01T12:17:25;101248.00;;;26.70
11849;BMP180;5983;49.966;8.052;2023-03-01T12:20:17;101252.00;;;26.40
11849;BMP180;5983;49.966;8.052;2023-03-01T12:23:19;101251.00;;;26.70
11849;BMP180;5983;49.966;8.052;2023-03-01T12:25:58;101253.00;;;27.00
11849;BMP180;5983;49.966;8.052;2023-03-01T12:28:48;101237.00;;;26.50
11849;BMP180;5983;49.966;8.052;2023-03-01T12:37:47;101229.00;;;26.50
11849;BMP180;5983;49.966;8.052;2023-03-01T12:40:46;101219.00;;;26.40
11849;BMP180;5983;49.966;8.052;2023-03-01T12:43:34;101224.00;;;26.90
11849;BMP180;5983;49.966;8.052;2023-03-01T12:46:25;101218.00;;;27.10
11849;BMP180;5983;49.966;8.052;2023-03-01T12:49:06;101205.00;;;26.30
11849;BMP180;5983;49.966;8.052;2023-03-01T12:51:36;101213.00;;;26.80
11849;BMP180;5983;49.966;8.052;2023-03-01T12:54:15;101198.00;;;26.90
11849;BMP180;5983;49.966;8.052;2023-03-01T12:56:45;101189.00;;;26.20
11849;BMP180;5983;49.966;8.052;2023-03-01T12:59:23;101181.00;;;26.30
11849;BMP180;5983;49.966;8.052;2023-03-01T13:02:02;101171.00;;;26.50
11849;BMP180;5983;49.966;8.052;2023-03-01T13:04:52;101173.00;;;26.90
11849;BMP180;5983;49.966;8.052;2023-03-01T13:07:29;101169.00;;;26.60
11849;BMP180;5983;49.966;8.052;2023-03-01T13:10:16;101164.00;;;26.80
11849;BMP180;5983;49.966;8.052;2023-03-01T13:13:00;101158.00;;;26.90
11849;BMP180;5983;49.966;8.052;2023-03-01T13:15:34;101164.00;;;26.90
11849;BMP180;5983;49.966;8.052;2023-03-01T13:18:04;101152.00;;;26.90
11849;BMP180;5983;49.966;8.052;2023-03-01T13:20:53;101150.00;;;27.10
11849;BMP180;5983;49.966;8.052;2023-03-01T13:23:29;101150.00;;;27.40
11849;BMP180;5983;49.966;8.052;2023-03-01T13:26:15;101147.00;;;27.20
11849;BMP180;5983;49.966;8.052;2023-03-01T13:28:55;101150.00;;;26.80
11849;BMP180;5983;49.966;8.052;2023-03-01T13:31:59;101144.00;;;26.90
11849;BMP180;5983;49.966;8.052;2023-03-01T13:34:54;101138.00;;;27.00
11849;BMP180;5983;49.966;8.052;2023-03-01T13:37:33;101139.00;;;27.20
11849;BMP180;5983;49.966;8.052;2023-03-01T13:40:08;101123.00;;;27.60
11849;BMP180;5983;49.966;8.052;2023-03-01T13:42:53;101121.00;;;27.60
11849;BMP180;5983;49.966;8.052;2023-03-01T13:45:33;101124.00;;;27.70
11849;BMP180;5983;49.966;8.052;2023-03-01T13:48:09;101116.00;;;27.40
11849;BMP180;5983;49.966;8.052;2023-03-01T13:50:45;101108.00;;;26.60
11849;BMP180;5983;49.966;8.052;2023-03-01T13:53:17;101108.00;;;26.30
11849;BMP180;5983;49.966;8.052;2023-03-01T13:55:48;101099.00;;;26.60
11849;BMP180;5983;49.966;8.052;2023-03-01T13:58:24;101112.00;;;26.20
11849;BMP180;5983;49.966;8.052;2023-03-01T14:01:02;101104.00;;;26.00
11849;BMP180;5983;49.966;8.052;2023-03-01T14:03:31;101111.00;;;25.80
11849;BMP180;5983;49.966;8.052;2023-03-01T14:06:03;101089.00;;;25.60
11849;BMP180;5983;49.966;8.052;2023-03-01T14:08:34;101084.00;;;25.80
11849;BMP180;5983;49.966;8.052;2023-03-01T14:12:00;101085.00;;;25.90
11849;BMP180;5983;49.966;8.052;2023-03-01T14:14:56;101093.00;;;25.80
11849;BMP180;5983;49.966;8.052;2023-03-01T14:17:46;101092.00;;;25.60
11849;BMP180;5983;49.966;8.052;2023-03-01T14:20:20;101096.00;;;25.80
11849;BMP180;5983;49.966;8.052;2023-03-01T14:22:49;101093.00;;;25.40
11849;BMP180;5983;49.966;8.052;2023-03-01T14:25:26;101096.00;;;25.20
11849;BMP180;5983;49.966;8.052;2023-03-01T14:28:02;101102.00;;;25.00
11849;BMP180;5983;49.966;8.052;2023-03-01T14:30:34;101100.00;;;24.80
11849;BMP180;5983;49.966;8.052;2023-03-01T14:33:15;101099.00;;;24.60
11849;BMP180;5983;49.966;8.052;2023-03-01T14:35:54;101096.00;;;24.60
11849;BMP180;5983;49.966;8.052;2023-03-01T14:38:23;101099.00;;;24.70
11849;BMP180;5983;49.966;8.052;2023-03-01T14:40:53;101095.00;;;24.70
11849;BMP180;5983;49.966;8.052;2023-03-01T14:43:24;101096.00;;;23.90
11849;BMP180;5983;49.966;8.052;2023-03-01T14:45:52;101091.00;;;23.30
11849;BMP180;5983;49.966;8.052;2023-03-01T14:48:21;101095.00;;;22.60
11849;BMP180;5983;49.966;8.052;2023-03-01T14:50:49;101086.00;;;21.90
11849;BMP180;5983;49.966;8.052;2023-03-01T14:53:20;101079.00;;;21.30